Time;durP1;ratioP1;P1;durP2;ratioP2;P2;SDS_P1;SDS_P2;PMS_P1;PMS_P2;Temp;Humidity;BMP_temperature;BMP_pressure;BME280_temperature;BME280_humidity;BME280_pressure;Samples;Min_cycle;Max_cycle;Signal;HPM_P1;HPM_P2
2022/11/11 00:02:19;;;;;;;;;;;9.50;90.70;;;;;;5072945;28;20481;-86
2022/11/11 00:04:45;;;;;;;;;;;9.50;90.50;;;;;;5072417;28;19947;-86
2022/11/11 00:07:10;;;;;;;;;;;9.50;90.50;;;;;;5072942;28;20295;-86
2022/11/11 00:09:36;;;;;;;;;;;9.50;90.50;;;;;;5072942;28;19988;-86
2022/11/11 00:12:02;;;;;;;;;;;9.40;90.30;;;;;;5073472;28;19955;-86
2022/11/11 00:14:28;;;;;;;;;;;9.40;90.30;;;;;;5076595;28;19941;-86
2022/11/11 00:25:06;;;;;;;;;;;9.20;91.70;;;;;;5076518;28;20072;-86
2022/11/11 00:27:32;;;;;;;;;;;9.30;91.70;;;;;;5076645;28;19949;-86
2022/11/11 00:29:58;;;;;;;;;;;9.30;91.30;;;;;;5076652;28;19942;-86
2022/11/11 00:32:25;;;;;;;;;;;9.30;90.80;;;;;;5076480;28;20411;-86
2022/11/11 00:37:35;;;;;;;;;;;9.20;90.80;;;;;;5076767;28;19947;-86
2022/11/11 00:40:01;;;;;;;;;;;9.10;91.60;;;;;;5076431;28;19940;-86
2022/11/11 00:42:26;;;;;;;;;;;9.10;91.80;;;;;;5076337;28;19941;-86
2022/11/11 00:44:52;;;;;;;;;;;9.20;93.20;;;;;;5076219;28;20288;-86
2022/11/11 00:52:48;;;;;;;;;;;9.10;94.00;;;;;;5075963;28;19967;-86
2022/11/11 00:55:13;;;;;;;;;;;9.10;93.60;;;;;;5074035;28;19946;-86
2022/11/11 00:57:39;;;;;;;;;;;9.10;93.30;;;;;;5075649;28;20038;-86
2022/11/11 01:00:05;;;;;;;;;;;9.10;93.20;;;;;;5076018;28;20110;-86
2022/11/11 01:02:30;;;;;;;;;;;9.10;93.20;;;;;;5076013;28;19948;-86
2022/11/11 01:04:56;;;;;;;;;;;9.10;93.00;;;;;;5075123;28;20305;-87
2022/11/11 01:07:22;;;;;;;;;;;9.10;93.10;;;;;;5075914;28;20348;-86
2022/11/11 01:09:47;;;;;;;;;;;9.20;93.50;;;;;;5075794;28;20462;-86
2022/11/11 01:12:13;;;;;;;;;;;9.20;93.10;;;;;;5075720;28;19959;-86
2022/11/11 01:14:38;;;;;;;;;;;9.20;92.80;;;;;;5075189;28;20030;-86
2022/11/11 01:17:05;;;;;;;;;;;9.30;93.00;;;;;;5075710;28;20395;-87
2022/11/11 01:19:30;;;;;;;;;;;9.30;93.20;;;;;;5075446;28;20039;-86
2022/11/11 01:21:56;;;;;;;;;;;9.30;93.10;;;;;;5075678;28;20042;-86
2022/11/11 01:24:22;;;;;;;;;;;9.30;93.10;;;;;;5074831;28;20365;-86
2022/11/11 01:26:47;;;;;;;;;;;9.20;92.90;;;;;;5075523;28;20438;-86
2022/11/11 01:29:13;;;;;;;;;;;9.20;92.80;;;;;;5075455;28;19945;-87
2022/11/11 01:31:38;;;;;;;;;;;9.20;92.80;;;;;;5075396;28;19957;-86
2022/11/11 01:34:04;;;;;;;;;;;9.20;92.80;;;;;;5075124;28;20066;-86
2022/11/11 01:36:29;;;;;;;;;;;9.20;92.70;;;;;;5075404;28;19966;-86
2022/11/11 01:38:56;;;;;;;;;;;9.10;92.60;;;;;;5074665;28;19939;-87
2022/11/11 01:41:32;;;;;;;;;;;9.00;92.50;;;;;;5075270;28;19939;-87
2022/11/11 01:43:58;;;;;;;;;;;8.90;92.40;;;;;;5074903;28;19945;-86
2022/11/11 01:46:44;;;;;;;;;;;8.90;92.50;;;;;;5075154;28;20047;-86
2022/11/11 01:49:28;;;;;;;;;;;8.90;92.80;;;;;;5074896;28;19945;-86
2022/11/11 01:51:56;;;;;;;;;;;8.80;93.20;;;;;;5074612;28;19978;-86
2022/11/11 01:54:28;;;;;;;;;;;8.90;93.40;;;;;;5073368;28;19946;-87
2022/11/11 01:56:57;;;;;;;;;;;8.90;93.10;;;;;;5074906;28;20474;-86
2022/11/11 01:59:23;;;;;;;;;;;8.90;93.00;;;;;;5074934;28;19943;-86
2022/11/11 02:01:49;;;;;;;;;;;8.90;93.00;;;;;;5074881;28;19943;-86
2022/11/11 02:07:01;;;;;;;;;;;8.90;92.70;;;;;;5055011;28;20018;-86
2022/11/11 02:09:27;;;;;;;;;;;8.80;92.60;;;;;;5054712;28;19989;-86
2022/11/11 02:14:41;;;;;;;;;;;8.70;93.10;;;;;;5066072;28;20008;-86
2022/11/11 02:17:12;;;;;;;;;;;8.70;92.90;;;;;;5074761;28;19941;-86
2022/11/11 02:19:38;;;;;;;;;;;8.70;93.10;;;;;;5073635;28;20007;-86
2022/11/11 02:22:07;;;;;;;;;;;8.80;93.00;;;;;;5074398;28;20407;-86
2022/11/11 02:24:32;;;;;;;;;;;8.80;93.00;;;;;;5073779;28;20034;-86
2022/11/11 02:26:58;;;;;;;;;;;8.80;92.70;;;;;;5074287;28;20035;-86
2022/11/11 02:29:24;;;;;;;;;;;8.80;92.40;;;;;;5074286;28;19942;-86
2022/11/11 02:31:49;;;;;;;;;;;8.80;92.40;;;;;;5074162;28;19961;-86
2022/11/11 02:34:15;;;;;;;;;;;8.90;92.40;;;;;;5072618;28;20301;-87
2022/11/11 02:36:41;;;;;;;;;;;8.90;91.90;;;;;;5070767;28;20414;-86
2022/11/11 02:39:06;;;;;;;;;;;8.90;91.60;;;;;;5072843;28;20001;-87
2022/11/11 02:44:16;;;;;;;;;;;8.80;90.90;;;;;;5073686;28;20053;-87
2022/11/11 02:46:41;;;;;;;;;;;8.70;90.60;;;;;;5073831;28;20373;-87
2022/11/11 02:49:07;;;;;;;;;;;8.60;90.90;;;;;;5073271;28;20448;-86
2022/11/11 02:51:32;;;;;;;;;;;8.50;91.40;;;;;;5073531;28;20459;-87
2022/11/11 02:53:58;;;;;;;;;;;8.50;91.80;;;;;;5073138;28;19945;-86
2022/11/11 02:59:08;;;;;;;;;;;8.50;91.40;;;;;;5074050;28;19971;-86
2022/11/11 03:01:33;;;;;;;;;;;8.40;91.30;;;;;;5073636;28;19941;-86
2022/11/11 03:03:59;;;;;;;;;;;8.40;91.80;;;;;;5073015;28;19950;-87
2022/11/11 03:06:24;;;;;;;;;;;8.40;91.80;;;;;;5073564;28;19980;-86
2022/11/11 03:08:50;;;;;;;;;;;8.40;91.90;;;;;;5073503;28;19942;-86
2022/11/11 03:11:26;;;;;;;;;;;8.40;91.70;;;;;;5073461;28;20008;-86
2022/11/11 03:13:55;;;;;;;;;;;8.30;91.60;;;;;;5073100;28;20451;-86
2022/11/11 03:19:12;;;;;;;;;;;8.40;91.60;;;;;;5064683;28;19952;-87
2022/11/11 03:21:38;;;;;;;;;;;8.40;92.10;;;;;;5073323;28;19943;-86
2022/11/11 03:24:04;;;;;;;;;;;8.40;92.00;;;;;;5073083;28;19955;-86
2022/11/11 03:26:29;;;;;;;;;;;8.40;91.90;;;;;;5071865;28;19946;-86
2022/11/11 03:28:55;;;;;;;;;;;8.40;91.90;;;;;;5071730;28;19941;-86
2022/11/11 03:31:21;;;;;;;;;;;8.40;91.50;;;;;;5071946;28;20403;-87
2022/11/11 03:33:46;;;;;;;;;;;8.40;91.60;;;;;;5072551;28;19947;-86
2022/11/11 03:36:12;;;;;;;;;;;8.40;91.70;;;;;;5072894;28;19954;-86
2022/11/11 03:38:38;;;;;;;;;;;8.40;92.50;;;;;;5073410;28;19982;-86
2022/11/11 03:41:03;;;;;;;;;;;8.40;92.60;;;;;;5073046;28;19944;-86
2022/11/11 03:43:30;;;;;;;;;;;8.30;92.80;;;;;;5073378;28;20384;-86
2022/11/11 03:45:57;;;;;;;;;;;8.30;92.90;;;;;;5072391;28;19949;-86
2022/11/11 03:48:23;;;;;;;;;;;8.30;93.10;;;;;;5073070;28;20020;-86
2022/11/11 03:50:49;;;;;;;;;;;8.20;93.50;;;;;;5072441;28;19972;-87
2022/11/11 03:53:16;;;;;;;;;;;8.20;93.50;;;;;;5072879;28;19944;-87
2022/11/11 03:55:41;;;;;;;;;;;8.30;93.40;;;;;;5072758;28;19952;-86
2022/11/11 03:58:07;;;;;;;;;;;8.30;93.00;;;;;;5071695;28;19942;-86
2022/11/11 04:00:33;;;;;;;;;;;8.40;92.90;;;;;;5072910;28;19979;-86
2022/11/11 04:11:16;;;;;;;;;;;8.10;92.30;;;;;;5072825;28;20394;-86
2022/11/11 04:16:27;;;;;;;;;;;8.20;91.90;;;;;;5073141;28;19947;-86
2022/11/11 04:21:43;;;;;;;;;;;8.10;91.60;;;;;;5072644;28;19947;-86
2022/11/11 04:26:59;;;;;;;;;;;7.90;91.10;;;;;;5061127;28;19947;-86
2022/11/11 04:29:28;;;;;;;;;;;7.80;91.80;;;;;;5072498;28;20001;-86
2022/11/11 04:34:44;;;;;;;;;;;7.80;92.50;;;;;;5072750;28;20394;-86
2022/11/11 04:37:09;;;;;;;;;;;7.90;92.00;;;;;;5072652;28;20030;-86
2022/11/11 04:42:20;;;;;;;;;;;8.00;92.10;;;;;;5072875;28;20392;-86
2022/11/11 04:47:29;;;;;;;;;;;8.00;91.90;;;;;;5072599;28;20358;-87
2022/11/11 04:49:55;;;;;;;;;;;7.90;91.70;;;;;;5072066;28;19943;-86
2022/11/11 04:52:26;;;;;;;;;;;7.80;91.30;;;;;;5072495;28;20444;-86
2022/11/11 04:57:46;;;;;;;;;;;7.60;92.50;;;;;;5072734;28;19962;-86
2022/11/11 05:00:16;;;;;;;;;;;7.70;92.50;;;;;;5076059;28;19936;-86
2022/11/11 05:05:26;;;;;;;;;;;7.70;93.10;;;;;;5074613;28;19983;-86
2022/11/11 05:10:36;;;;;;;;;;;7.70;93.40;;;;;;5076051;28;19962;-86
2022/11/11 05:21:33;;;;;;;;;;;7.70;93.30;;;;;;5068901;28;19990;-86
2022/11/11 05:26:43;;;;;;;;;;;7.40;92.40;;;;;;5075608;28;19951;-86
2022/11/11 05:29:08;;;;;;;;;;;7.30;92.50;;;;;;5075556;28;20032;-87
2022/11/11 05:31:34;;;;;;;;;;;7.20;92.60;;;;;;5090962;28;20019;-86
2022/11/11 05:33:59;;;;;;;;;;;7.10;92.70;;;;;;5075426;28;19947;-87
2022/11/11 05:36:25;;;;;;;;;;;7.10;92.80;;;;;;5074825;28;19941;-86
2022/11/11 05:38:50;;;;;;;;;;;7.10;92.70;;;;;;5075328;28;20409;-87
2022/11/11 05:41:16;;;;;;;;;;;7.10;92.90;;;;;;5075253;28;19948;-86
2022/11/11 05:43:41;;;;;;;;;;;7.00;93.00;;;;;;5075306;28;19986;-87
2022/11/11 05:46:07;;;;;;;;;;;7.00;92.90;;;;;;5075191;28;19940;-86
2022/11/11 05:48:32;;;;;;;;;;;6.90;92.60;;;;;;5075158;28;19943;-86
2022/11/11 05:50:58;;;;;;;;;;;6.80;92.20;;;;;;5074449;28;20484;-86
2022/11/11 05:53:24;;;;;;;;;;;6.80;92.30;;;;;;5074655;28;19958;-86
2022/11/11 05:55:49;;;;;;;;;;;6.70;92.10;;;;;;5074762;28;19939;-86
2022/11/11 05:58:19;;;;;;;;;;;6.70;92.40;;;;;;5074907;28;19990;-86
2022/11/11 06:00:44;;;;;;;;;;;6.70;92.50;;;;;;5074331;28;19948;-86
2022/11/11 06:03:10;;;;;;;;;;;6.60;92.70;;;;;;5074827;28;19989;-86
2022/11/11 06:05:35;;;;;;;;;;;6.70;93.00;;;;;;5072628;28;20372;-86
2022/11/11 06:08:01;;;;;;;;;;;6.70;93.20;;;;;;5079915;28;19964;-86
2022/11/11 06:10:29;;;;;;;;;;;6.80;93.50;;;;;;5062252;28;19943;-86
2022/11/11 06:13:01;;;;;;;;;;;6.80;93.60;;;;;;5074402;28;19941;-86
2022/11/11 06:15:27;;;;;;;;;;;6.80;93.90;;;;;;5073075;28;19950;-86
2022/11/11 06:17:52;;;;;;;;;;;6.90;94.00;;;;;;5074272;28;19990;-86
2022/11/11 06:20:18;;;;;;;;;;;6.90;93.90;;;;;;5069404;28;20398;-86
2022/11/11 06:22:56;;;;;;;;;;;6.90;94.10;;;;;;5074270;28;20039;-86
2022/11/11 06:28:09;;;;;;;;;;;7.10;94.20;;;;;;5056730;28;20400;-86
2022/11/11 06:30:34;;;;;;;;;;;7.30;93.90;;;;;;5068436;28;19944;-86
2022/11/11 06:33:00;;;;;;;;;;;7.40;93.80;;;;;;5072407;28;19955;-86
2022/11/11 06:35:26;;;;;;;;;;;7.40;93.50;;;;;;5073146;28;20300;-86
2022/11/11 06:37:51;;;;;;;;;;;7.30;93.40;;;;;;5071636;28;19961;-86
2022/11/11 06:40:17;;;;;;;;;;;7.10;92.60;;;;;;5073085;28;19955;-86
2022/11/11 06:42:43;;;;;;;;;;;6.90;92.50;;;;;;5071042;28;20401;-86
2022/11/11 06:45:09;;;;;;;;;;;6.80;92.50;;;;;;5072049;28;19952;-86
2022/11/11 06:47:34;;;;;;;;;;;6.70;92.40;;;;;;5070615;28;19950;-86
2022/11/11 06:50:00;;;;;;;;;;;6.80;92.90;;;;;;5072931;28;19955;-86
2022/11/11 06:52:25;;;;;;;;;;;6.90;93.10;;;;;;5070996;28;20111;-87
2022/11/11 06:54:51;;;;;;;;;;;7.00;93.60;;;;;;5072786;28;19948;-86
2022/11/11 06:57:16;;;;;;;;;;;7.30;93.90;;;;;;5071479;28;20352;-86
2022/11/11 06:59:42;;;;;;;;;;;7.50;93.70;;;;;;5071191;28;20443;-86
2022/11/11 07:02:12;;;;;;;;;;;7.70;93.60;;;;;;5065664;28;20447;-87
2022/11/11 07:04:37;;;;;;;;;;;7.90;93.40;;;;;;5070848;28;19944;-86
2022/11/11 07:07:03;;;;;;;;;;;7.80;93.30;;;;;;5070702;28;19951;-86
2022/11/11 07:09:28;;;;;;;;;;;7.80;93.30;;;;;;5065709;28;20075;-86
2022/11/11 07:11:54;;;;;;;;;;;7.80;93.30;;;;;;5071774;28;19965;-86
2022/11/11 07:14:19;;;;;;;;;;;7.90;93.70;;;;;;5072021;28;19946;-86
2022/11/11 07:16:45;;;;;;;;;;;8.20;93.80;;;;;;5071120;28;19943;-87
2022/11/11 07:19:10;;;;;;;;;;;8.40;93.70;;;;;;5072494;28;19947;-86
2022/11/11 07:21:36;;;;;;;;;;;8.70;93.70;;;;;;5070967;28;19988;-86
2022/11/11 07:24:02;;;;;;;;;;;8.90;93.60;;;;;;5070710;28;19952;-87
2022/11/11 07:26:27;;;;;;;;;;;9.10;93.30;;;;;;5071267;28;19942;-87
2022/11/11 07:28:53;;;;;;;;;;;9.20;92.90;;;;;;5075653;28;19947;-86
2022/11/11 07:31:18;;;;;;;;;;;9.40;92.60;;;;;;5063850;28;20040;-87
2022/11/11 07:33:44;;;;;;;;;;;9.50;92.60;;;;;;5069204;28;19955;-87
2022/11/11 07:36:09;;;;;;;;;;;9.60;93.00;;;;;;5071472;28;19935;-87
2022/11/11 07:38:35;;;;;;;;;;;9.60;93.00;;;;;;5072427;28;19940;-87
2022/11/11 07:41:00;;;;;;;;;;;9.80;93.20;;;;;;5071623;28;19946;-87
2022/11/11 07:43:26;;;;;;;;;;;10.00;93.30;;;;;;5068749;28;19937;-87
2022/11/11 07:45:51;;;;;;;;;;;10.20;93.30;;;;;;5061627;28;19943;-87
2022/11/11 07:48:17;;;;;;;;;;;10.40;93.10;;;;;;5064384;28;19942;-87
2022/11/11 07:50:42;;;;;;;;;;;10.40;92.80;;;;;;5070615;22;20032;-87
2022/11/11 07:53:08;;;;;;;;;;;10.50;92.90;;;;;;5046134;28;20414;-87
2022/11/11 07:55:34;;;;;;;;;;;10.60;91.90;;;;;;5030727;28;19946;-87
2022/11/11 07:58:01;;;;;;;;;;;10.80;91.00;;;;;;5031150;28;20394;-87
2022/11/11 08:00:27;;;;;;;;;;;10.90;90.20;;;;;;5036486;28;20464;-87
2022/11/11 08:02:52;;;;;;;;;;;11.00;89.90;;;;;;5030702;28;20047;-87
2022/11/11 08:05:18;;;;;;;;;;;10.90;89.90;;;;;;5031075;28;19943;-87
2022/11/11 08:07:43;;;;;;;;;;;10.90;90.50;;;;;;5034248;28;19955;-87
2022/11/11 08:10:10;;;;;;;;;;;11.00;90.70;;;;;;5037109;28;19949;-87
2022/11/11 08:15:19;;;;;;;;;;;11.60;90.60;;;;;;5025956;28;19953;-87
2022/11/11 08:17:45;;;;;;;;;;;12.00;90.00;;;;;;5030421;28;19946;-87
2022/11/11 08:20:10;;;;;;;;;;;12.30;89.40;;;;;;5029114;28;19951;-87
2022/11/11 08:22:40;;;;;;;;;;;12.40;88.60;;;;;;5032676;28;19984;-86
2022/11/11 08:25:06;;;;;;;;;;;12.60;88.00;;;;;;5029237;28;19948;-87
2022/11/11 08:27:32;;;;;;;;;;;12.70;87.50;;;;;;5028553;28;19993;-87
2022/11/11 08:29:58;;;;;;;;;;;12.80;87.40;;;;;;5031805;28;19933;-86
2022/11/11 08:32:23;;;;;;;;;;;12.90;86.40;;;;;;5028050;28;20467;-86
2022/11/11 08:34:49;;;;;;;;;;;12.90;86.00;;;;;;5016714;28;19944;-87
2022/11/11 08:37:15;;;;;;;;;;;12.90;86.40;;;;;;5033497;28;19950;-87
2022/11/11 08:39:40;;;;;;;;;;;12.80;86.70;;;;;;5009918;28;19961;-87
2022/11/11 08:42:06;;;;;;;;;;;12.70;87.20;;;;;;5033707;28;19970;-87
2022/11/11 08:44:31;;;;;;;;;;;12.80;87.50;;;;;;5030899;28;20313;-87
2022/11/11 08:46:57;;;;;;;;;;;12.80;88.10;;;;;;5026093;28;19945;-87
2022/11/11 08:49:22;;;;;;;;;;;12.80;88.50;;;;;;5034349;28;20022;-87
2022/11/11 08:51:48;;;;;;;;;;;13.00;88.90;;;;;;5033122;28;20070;-87
2022/11/11 08:54:13;;;;;;;;;;;13.40;88.70;;;;;;5032360;28;20191;-87
2022/11/11 08:56:39;;;;;;;;;;;13.60;88.10;;;;;;5031867;28;20091;-87
2022/11/11 08:59:05;;;;;;;;;;;13.90;87.40;;;;;;5034652;28;20056;-87
2022/11/11 09:01:30;;;;;;;;;;;14.00;86.70;;;;;;5034010;28;20315;-87
2022/11/11 09:03:56;;;;;;;;;;;14.10;86.10;;;;;;5030682;28;19946;-87
2022/11/11 09:06:21;;;;;;;;;;;14.30;84.20;;;;;;5030014;28;19947;-87
2022/11/11 09:08:47;;;;;;;;;;;14.50;83.40;;;;;;5033879;28;19955;-87
2022/11/11 09:11:13;;;;;;;;;;;14.50;82.70;;;;;;5028406;28;19975;-86
2022/11/11 09:13:39;;;;;;;;;;;14.50;83.40;;;;;;5034234;28;19958;-87
2022/11/11 09:16:05;;;;;;;;;;;14.40;84.00;;;;;;5030936;28;19948;-87
2022/11/11 09:18:31;;;;;;;;;;;14.30;84.30;;;;;;5034536;28;20406;-87
2022/11/11 09:20:57;;;;;;;;;;;14.20;84.60;;;;;;5032495;28;19952;-87
2022/11/11 09:23:23;;;;;;;;;;;14.40;84.80;;;;;;5033163;28;19947;-87
2022/11/11 09:25:48;;;;;;;;;;;14.50;84.80;;;;;;5032267;28;19948;-86
2022/11/11 09:28:14;;;;;;;;;;;14.60;84.50;;;;;;5034009;28;19957;-87
2022/11/11 09:30:39;;;;;;;;;;;14.80;83.90;;;;;;5033814;28;19955;-87
2022/11/11 09:33:05;;;;;;;;;;;15.00;83.60;;;;;;5033435;28;19950;-87
2022/11/11 09:35:31;;;;;;;;;;;15.10;83.10;;;;;;5031427;28;20401;-87
2022/11/11 09:38:00;;;;;;;;;;;15.20;82.50;;;;;;5034531;28;19960;-87
2022/11/11 09:40:26;;;;;;;;;;;15.40;81.80;;;;;;5034653;28;19953;-87
2022/11/11 09:42:58;;;;;;;;;;;15.50;80.30;;;;;;5032744;28;20038;-87
2022/11/11 09:45:29;;;;;;;;;;;15.60;79.00;;;;;;5032892;28;19998;-87
2022/11/11 09:47:55;;;;;;;;;;;15.60;78.90;;;;;;5032840;28;20387;-87
2022/11/11 09:50:22;;;;;;;;;;;15.70;78.20;;;;;;5033517;28;20010;-87
2022/11/11 09:52:58;;;;;;;;;;;15.80;78.00;;;;;;5015172;28;19948;-86
2022/11/11 09:55:32;;;;;;;;;;;15.70;77.80;;;;;;5033697;28;19949;-86
2022/11/11 09:58:00;;;;;;;;;;;15.60;78.40;;;;;;5034409;28;20362;-87
2022/11/11 10:00:31;;;;;;;;;;;15.60;78.80;;;;;;5033478;28;19971;-87
2022/11/11 10:03:04;;;;;;;;;;;15.60;78.60;;;;;;5033451;28;19991;-87
2022/11/11 10:05:32;;;;;;;;;;;15.80;78.80;;;;;;5033536;28;19999;-87
2022/11/11 10:08:04;;;;;;;;;;;16.00;77.70;;;;;;5014306;28;20392;-87
2022/11/11 10:10:30;;;;;;;;;;;16.10;77.10;;;;;;5020164;28;20433;-87
2022/11/11 10:12:57;;;;;;;;;;;16.20;77.00;;;;;;5034610;28;19990;-87
2022/11/11 10:15:28;;;;;;;;;;;16.30;76.90;;;;;;5028414;28;19950;-87
2022/11/11 10:17:57;;;;;;;;;;;16.40;76.20;;;;;;5017705;28;20211;-87
2022/11/11 10:20:24;;;;;;;;;;;16.60;76.30;;;;;;5031672;28;20008;-87
2022/11/11 10:22:53;;;;;;;;;;;16.70;75.20;;;;;;5028500;28;20058;-87
2022/11/11 10:25:21;;;;;;;;;;;16.90;73.80;;;;;;5031535;28;19942;-87
2022/11/11 10:27:47;;;;;;;;;;;17.30;72.60;;;;;;5023812;28;20386;-87
2022/11/11 10:30:13;;;;;;;;;;;17.50;71.30;;;;;;5033390;28;20057;-87
2022/11/11 10:32:39;;;;;;;;;;;17.60;71.30;;;;;;5031761;28;20131;-87
2022/11/11 10:35:16;;;;;;;;;;;17.80;70.70;;;;;;5032427;28;19963;-86
2022/11/11 10:37:41;;;;;;;;;;;17.70;69.90;;;;;;5016025;28;19946;-86
2022/11/11 10:40:25;;;;;;;;;;;17.60;69.60;;;;;;5032318;28;20049;-87
2022/11/11 10:42:51;;;;;;;;;;;17.50;70.00;;;;;;5031917;28;20025;-87
2022/11/11 10:45:32;;;;;;;;;;;17.80;69.80;;;;;;5029081;28;20030;-87
2022/11/11 10:47:58;;;;;;;;;;;18.00;68.70;;;;;;5030848;28;20030;-87
2022/11/11 10:50:42;;;;;;;;;;;18.30;67.70;;;;;;5032640;28;20038;-86
2022/11/11 10:53:22;;;;;;;;;;;18.10;67.10;;;;;;5034773;28;19986;-86
2022/11/11 10:55:52;;;;;;;;;;;18.00;68.70;;;;;;5017344;28;20050;-87
2022/11/11 10:58:21;;;;;;;;;;;18.10;68.20;;;;;;5031921;28;20416;-87
2022/11/11 11:00:48;;;;;;;;;;;18.30;68.70;;;;;;5031554;28;20144;-87
2022/11/11 11:03:21;;;;;;;;;;;18.60;67.60;;;;;;5031967;28;19948;-87
2022/11/11 11:05:52;;;;;;;;;;;18.80;66.00;;;;;;5013321;28;19947;-87
2022/11/11 11:08:29;;;;;;;;;;;19.20;65.90;;;;;;5033569;28;20396;-87
2022/11/11 11:11:00;;;;;;;;;;;19.30;64.10;;;;;;5032876;28;19966;-87
2022/11/11 11:13:33;;;;;;;;;;;19.40;63.30;;;;;;5032125;28;19945;-87
2022/11/11 11:16:02;;;;;;;;;;;19.70;60.50;;;;;;5033574;28;19988;-87
2022/11/11 11:18:28;;;;;;;;;;;20.00;59.10;;;;;;5033808;28;19940;-87
2022/11/11 11:20:58;;;;;;;;;;;20.10;58.90;;;;;;5032221;28;20003;-87
2022/11/11 11:23:42;;;;;;;;;;;19.90;58.40;;;;;;5033317;28;19945;-87
2022/11/11 11:26:10;;;;;;;;;;;19.20;61.20;;;;;;5031904;28;19953;-87
2022/11/11 11:29:02;;;;;;;;;;;18.90;62.80;;;;;;5033704;28;19941;-87
2022/11/11 11:31:35;;;;;;;;;;;19.00;63.20;;;;;;5030495;28;20007;-87
2022/11/11 11:34:01;;;;;;;;;;;19.10;62.10;;;;;;5033338;28;19951;-87
2022/11/11 11:36:27;;;;;;;;;;;19.40;60.30;;;;;;5032520;28;19946;-87
2022/11/11 11:38:52;;;;;;;;;;;19.60;59.70;;;;;;5033313;28;19939;-87
2022/11/11 11:41:35;;;;;;;;;;;19.60;60.90;;;;;;5033250;28;19947;-87
2022/11/11 11:44:01;;;;;;;;;;;19.80;60.20;;;;;;5033268;28;20210;-87
2022/11/11 11:46:36;;;;;;;;;;;20.00;60.80;;;;;;5032359;28;20514;-87
2022/11/11 11:49:01;;;;;;;;;;;20.20;58.90;;;;;;5032855;28;19970;-87
2022/11/11 11:51:27;;;;;;;;;;;20.20;58.00;;;;;;5031926;28;19977;-87
2022/11/11 11:54:11;;;;;;;;;;;20.20;58.90;;;;;;5033021;28;19943;-87
2022/11/11 11:56:48;;;;;;;;;;;20.20;59.10;;;;;;5031683;28;19948;-87
2022/11/11 11:59:19;;;;;;;;;;;20.50;57.80;;;;;;5033041;28;19940;-87
2022/11/11 12:01:49;;;;;;;;;;;20.30;56.90;;;;;;5032925;28;19933;-87
2022/11/11 12:04:24;;;;;;;;;;;20.70;56.60;;;;;;5033021;28;20027;-87
2022/11/11 12:06:55;;;;;;;;;;;21.30;55.20;;;;;;5030888;28;19963;-87
2022/11/11 12:09:20;;;;;;;;;;;22.10;52.80;;;;;;5037064;28;20451;-87
2022/11/11 12:11:55;;;;;;;;;;;22.70;51.40;;;;;;5036923;28;20074;-87
2022/11/11 12:14:39;;;;;;;;;;;23.30;49.80;;;;;;5036359;28;20005;-87
2022/11/11 12:17:14;;;;;;;;;;;23.50;49.50;;;;;;5017171;28;19996;-87
2022/11/11 12:19:49;;;;;;;;;;;24.00;48.50;;;;;;5017293;28;19943;-87
2022/11/11 12:22:24;;;;;;;;;;;24.60;46.20;;;;;;5033179;28;20128;-87
2022/11/11 12:24:56;;;;;;;;;;;24.80;45.40;;;;;;5033852;28;20074;-87
2022/11/11 12:27:30;;;;;;;;;;;24.90;44.80;;;;;;5016954;28;19944;-87
2022/11/11 12:29:56;;;;;;;;;;;24.90;45.00;;;;;;5021832;28;19947;-87
2022/11/11 12:32:40;;;;;;;;;;;25.10;45.20;;;;;;5032375;28;19959;-87
2022/11/11 12:35:26;;;;;;;;;;;25.30;44.20;;;;;;5033988;28;19951;-87
2022/11/11 12:38:07;;;;;;;;;;;25.30;44.20;;;;;;5012206;28;19956;-87
2022/11/11 12:40:40;;;;;;;;;;;25.30;43.40;;;;;;5030699;28;20002;-87
2022/11/11 12:43:11;;;;;;;;;;;24.80;44.90;;;;;;5036309;28;19957;-87
2022/11/11 12:45:46;;;;;;;;;;;24.20;46.90;;;;;;5034127;28;20009;-87
2022/11/11 12:48:24;;;;;;;;;;;24.10;47.90;;;;;;5031612;28;20321;-86
2022/11/11 12:50:59;;;;;;;;;;;24.20;47.40;;;;;;5034077;28;19979;-87
2022/11/11 12:53:31;;;;;;;;;;;24.10;47.40;;;;;;5035298;28;19951;-87
2022/11/11 12:56:15;;;;;;;;;;;23.90;48.20;;;;;;5031267;28;21504;-86
2022/11/11 12:59:00;;;;;;;;;;;23.80;48.60;;;;;;5030482;28;19950;-86
2022/11/11 13:01:45;;;;;;;;;;;24.50;47.70;;;;;;5034521;28;19974;-87
2022/11/11 13:04:29;;;;;;;;;;;25.10;45.80;;;;;;5029422;28;19944;-87
2022/11/11 13:07:13;;;;;;;;;;;25.50;45.00;;;;;;5029886;28;20154;-87
2022/11/11 13:09:57;;;;;;;;;;;26.00;43.40;;;;;;5032672;28;19987;-87
2022/11/11 13:12:31;;;;;;;;;;;26.50;41.90;;;;;;5033101;28;19970;-87
2022/11/11 13:15:01;;;;;;;;;;;26.60;42.00;;;;;;5033851;28;20045;-87
2022/11/11 13:17:26;;;;;;;;;;;26.40;42.10;;;;;;5034088;28;20455;-87
2022/11/11 13:19:54;;;;;;;;;;;26.30;42.30;;;;;;5032008;28;19945;-87
2022/11/11 13:22:22;;;;;;;;;;;25.80;42.80;;;;;;5024159;28;19947;-87
2022/11/11 13:24:49;;;;;;;;;;;25.90;43.60;;;;;;5031485;28;20435;-87
2022/11/11 13:27:47;;;;;;;;;;;26.20;42.10;;;;;;5034434;28;19947;-87
2022/11/11 13:30:31;;;;;;;;;;;26.00;42.40;;;;;;5003238;28;19947;-87
2022/11/11 13:33:05;;;;;;;;;;;26.00;42.80;;;;;;5032802;28;19947;-87
2022/11/11 13:35:34;;;;;;;;;;;25.90;42.20;;;;;;5029003;28;20135;-87
2022/11/11 13:38:00;;;;;;;;;;;26.00;42.60;;;;;;5033043;28;19954;-87
2022/11/11 13:40:32;;;;;;;;;;;25.70;43.00;;;;;;5033116;28;19945;-87
2022/11/11 13:42:58;;;;;;;;;;;25.40;44.10;;;;;;5028431;28;19985;-87
2022/11/11 13:45:38;;;;;;;;;;;25.40;43.90;;;;;;5031565;28;20001;-87
2022/11/11 13:48:04;;;;;;;;;;;25.70;42.20;;;;;;5028138;28;20032;-87
2022/11/11 13:50:37;;;;;;;;;;;26.00;40.90;;;;;;5029081;28;20006;-87
2022/11/11 13:53:04;;;;;;;;;;;25.90;41.30;;;;;;5030534;28;19946;-87
2022/11/11 13:55:36;;;;;;;;;;;25.80;42.10;;;;;;5026153;28;19945;-87
2022/11/11 13:58:01;;;;;;;;;;;25.50;42.80;;;;;;5032440;28;19954;-87
2022/11/11 14:00:33;;;;;;;;;;;25.20;43.30;;;;;;5037101;28;19976;-87
2022/11/11 14:03:17;;;;;;;;;;;24.80;44.20;;;;;;5031293;28;19947;-87
2022/11/11 14:05:43;;;;;;;;;;;24.60;44.60;;;;;;5012762;28;19938;-87
2022/11/11 14:08:09;;;;;;;;;;;24.20;45.80;;;;;;5019437;28;19955;-87
2022/11/11 14:10:34;;;;;;;;;;;23.80;46.60;;;;;;5037316;28;19993;-87
2022/11/11 14:13:23;;;;;;;;;;;23.30;47.20;;;;;;5032400;28;20056;-87
2022/11/11 14:15:51;;;;;;;;;;;23.20;48.30;;;;;;5024335;28;20437;-87
2022/11/11 14:18:17;;;;;;;;;;;23.00;48.60;;;;;;5033235;28;19981;-87
2022/11/11 14:20:47;;;;;;;;;;;22.80;48.50;;;;;;5035250;28;20347;-87
2022/11/11 14:23:13;;;;;;;;;;;22.80;47.70;;;;;;5036338;28;19960;-87
2022/11/11 14:25:38;;;;;;;;;;;22.70;48.20;;;;;;5027421;28;19949;-87
2022/11/11 14:28:18;;;;;;;;;;;22.60;48.80;;;;;;5029604;28;19954;-87
2022/11/11 14:30:43;;;;;;;;;;;22.20;50.60;;;;;;5030121;28;20030;-87
2022/11/11 14:33:17;;;;;;;;;;;21.80;51.90;;;;;;5031894;28;20042;-87
2022/11/11 14:35:47;;;;;;;;;;;21.70;53.10;;;;;;5029918;28;20043;-87
2022/11/11 14:38:32;;;;;;;;;;;21.30;53.50;;;;;;5032083;28;19990;-87
2022/11/11 14:41:18;;;;;;;;;;;20.90;54.70;;;;;;5029179;28;19950;-87
2022/11/11 14:43:43;;;;;;;;;;;20.70;55.30;;;;;;5028518;28;19947;-87
2022/11/11 14:46:10;;;;;;;;;;;20.50;56.50;;;;;;5032714;28;19960;-87
2022/11/11 14:48:52;;;;;;;;;;;20.30;59.30;;;;;;5034054;28;20391;-87
2022/11/11 14:51:36;;;;;;;;;;;20.20;60.00;;;;;;5033013;28;19984;-87
2022/11/11 14:54:03;;;;;;;;;;;19.90;62.00;;;;;;5025516;28;19952;-87
2022/11/11 14:56:30;;;;;;;;;;;19.70;63.80;;;;;;5030015;28;20041;-87
2022/11/11 14:58:59;;;;;;;;;;;19.30;64.00;;;;;;5029616;28;19953;-87
2022/11/11 15:01:25;;;;;;;;;;;19.00;63.80;;;;;;5026579;28;19964;-87
2022/11/11 15:03:52;;;;;;;;;;;18.80;64.90;;;;;;5030156;28;20038;-87
2022/11/11 15:06:21;;;;;;;;;;;18.80;65.90;;;;;;5025574;28;19959;-87
2022/11/11 15:08:58;;;;;;;;;;;18.60;67.30;;;;;;5032046;28;19942;-87
2022/11/11 15:11:24;;;;;;;;;;;18.40;67.50;;;;;;5031827;28;20051;-87
2022/11/11 15:14:05;;;;;;;;;;;18.30;67.70;;;;;;5030383;28;20043;-87
2022/11/11 15:16:50;;;;;;;;;;;18.20;67.70;;;;;;5029870;28;19944;-88
2022/11/11 15:19:24;;;;;;;;;;;18.10;67.90;;;;;;5029760;28;19951;-87
2022/11/11 15:21:52;;;;;;;;;;;17.90;70.20;;;;;;5031219;28;20311;-87
2022/11/11 15:24:20;;;;;;;;;;;17.50;71.80;;;;;;5029218;28;19958;-88
2022/11/11 15:26:54;;;;;;;;;;;17.40;73.10;;;;;;5031330;28;19954;-88
2022/11/11 15:29:20;;;;;;;;;;;17.20;73.90;;;;;;5031748;28;19996;-87
2022/11/11 15:31:45;;;;;;;;;;;16.90;75.10;;;;;;5028782;28;19956;-87
2022/11/11 15:34:20;;;;;;;;;;;16.60;74.70;;;;;;5030061;28;20089;-87
2022/11/11 15:36:51;;;;;;;;;;;16.30;75.00;;;;;;5029483;28;19968;-87
2022/11/11 15:39:18;;;;;;;;;;;16.10;75.10;;;;;;5034414;28;19951;-87
2022/11/11 15:41:46;;;;;;;;;;;15.90;74.60;;;;;;5036590;28;19988;-87
2022/11/11 15:44:23;;;;;;;;;;;15.80;76.20;;;;;;5023837;28;19942;-87
2022/11/11 15:46:49;;;;;;;;;;;15.80;78.30;;;;;;5030619;28;19948;-87
2022/11/11 15:49:34;;;;;;;;;;;15.70;78.60;;;;;;5028876;28;19949;-87
2022/11/11 15:52:00;;;;;;;;;;;15.60;78.80;;;;;;5066054;22;19980;-87
2022/11/11 15:54:27;;;;;;;;;;;15.50;79.00;;;;;;5050320;28;21532;-87